Palm Beach International Airport
KPBI : now visible

Airfield :











YOU CAN JOIN US ON...

 
LOGIN :

Register | Disclaimer

   EN    FR    IT 

 









Legend :    VFR   Marginal VFR   IFR   Intensive IFR   Very Intensive IFR
Visi :
Ceiling :
>= 8 km
>= 3000ft
5 to 8 km
1000 to 3000 ft
1500m to 5 km
500 to 1000 ft
800 to 1500m
200 to 500 ft
< 800m
< 200 ft
Symbols :   Thunderstorms  Fog  Heavy snow  Heavy precipitations  Wind > 20 kt






- Airport Elevation : 19 ft
- IATA code : PBI


KPBI - Palm Beach International

CURRENT METAR :
  • 121553Z 15009KT 10SM SCT032CB SCT040 BKN055 30/22 A3008 RMK AO2 SLP185 CB S MOV N T03000217

EXPIRED METARs :
  • 121453Z 16007KT 10SM SCT037 SCT050 SCT250 32/21 A3009 RMK AO2 SLP189 T03170211 51009
  • 121353Z 15008KT 10SM SCT033 SCT042 SCT250 31/21 A3009 RMK AO2 SLP188 T03110206

TAF KPBI
Valid from the 12 at 15:00 until the 13 at 12:00 UTC


121502Z 1215/1312 15010KT P6SM VCSH SCT040 SCT250
FM121800 14012KT P6SM VCTS SCT025CB SCT050
FM130200 VRB04KT P6SM SCT025 BKN100
KZMA FIR / North America



MET'MAP, your aeronautical weather chart ! - Copyright ORBIFLY December 2007 - Disclaimer

ORBIFLY MET'MAP TEAM :

Programming & Development : Alexandra Zaïnal
Concept & original design : Baudouin d'Aumeries
Assistance for programming : Marc-Olivier Méhu
Technical & hardware support : Manuel Goepfert

Contact : metmap@orbifly.com




SOURCES & CREDITS :

   NOAA       Earth
Advisory